Time;durP1;ratioP1;P1;durP2;ratioP2;P2;SDS_P1;SDS_P2;PMS_P1;PMS_P2;Temp;Humidity;BMP_temperature;BMP_pressure;BME280_temperature;BME280_humidity;BME280_pressure;Samples;Min_cycle;Max_cycle;Signal;HPM_P1;HPM_P2
2021/04/27 00:03:17;;;;;;;4.50;2.37;;;11.60;16.00;;;;;;10401553;28;20333;-74
2021/04/27 00:08:20;;;;;;;2.90;2.60;;;11.50;15.90;;;;;;10405816;28;20250;-74
2021/04/27 00:13:22;;;;;;;3.00;2.50;;;11.50;16.00;;;;;;10416838;28;20236;-74
2021/04/27 00:18:24;;;;;;;3.30;2.67;;;11.40;15.90;;;;;;10410300;28;20260;-74
2021/04/27 00:23:28;;;;;;;5.00;2.80;;;11.30;15.90;;;;;;10411803;28;20232;-74
2021/04/27 00:28:30;;;;;;;3.00;2.70;;;11.20;16.10;;;;;;10404871;28;20257;-73
2021/04/27 00:33:32;;;;;;;3.03;2.80;;;11.10;16.00;;;;;;10412866;28;20324;-74
2021/04/27 00:38:35;;;;;;;3.50;2.50;;;11.00;16.10;;;;;;10408854;28;20320;-74
2021/04/27 00:43:37;;;;;;;4.00;2.37;;;10.90;16.20;;;;;;10402293;28;20237;-74
2021/04/27 00:48:40;;;;;;;3.87;3.13;;;10.80;16.30;;;;;;10413343;28;20229;-74
2021/04/27 00:53:44;;;;;;;4.93;2.90;;;10.70;16.90;;;;;;10413648;28;20217;-74
2021/04/27 00:58:46;;;;;;;3.40;2.80;;;10.60;16.50;;;;;;10407480;28;20637;-74
2021/04/27 01:03:49;;;;;;;3.10;2.80;;;10.60;16.50;;;;;;10403490;28;20315;-74
2021/04/27 01:09:01;;;;;;;3.87;2.80;;;10.50;16.50;;;;;;10409171;28;20311;-74
2021/04/27 01:14:07;;;;;;;4.63;3.17;;;10.40;17.00;;;;;;10413645;28;20221;-74
2021/04/27 01:19:14;;;;;;;4.37;2.90;;;10.30;16.80;;;;;;10400294;28;20250;-74
2021/04/27 01:24:23;;;;;;;3.27;2.87;;;10.20;16.80;;;;;;10407292;28;20271;-74
2021/04/27 01:29:28;;;;;;;3.70;2.70;;;10.10;17.20;;;;;;10411581;28;20317;-74
2021/04/27 01:34:34;;;;;;;2.93;2.63;;;10.00;17.00;;;;;;10404300;28;20253;-74
2021/04/27 01:39:37;;;;;;;4.13;2.60;;;10.00;17.20;;;;;;10416608;28;20312;-74
2021/04/27 01:44:42;;;;;;;3.33;3.03;;;9.90;17.70;;;;;;10406832;28;20312;-74
2021/04/27 01:49:45;;;;;;;5.03;3.13;;;9.80;17.80;;;;;;10404685;28;20320;-74
2021/04/27 01:54:48;;;;;;;4.10;2.90;;;9.80;17.80;;;;;;10408667;28;20241;-74
2021/04/27 01:59:52;;;;;;;4.33;2.73;;;9.80;18.00;;;;;;10410298;28;20684;-74
2021/04/27 02:04:56;;;;;;;3.37;3.00;;;9.70;18.10;;;;;;10399160;28;20225;-74
2021/04/27 02:09:58;;;;;;;3.80;2.90;;;9.70;18.20;;;;;;10396247;28;20226;-74
2021/04/27 02:15:01;;;;;;;3.27;2.97;;;9.70;18.20;;;;;;10401848;28;20249;-74
2021/04/27 02:20:06;;;;;;;3.50;2.47;;;9.70;18.20;;;;;;10405966;28;20682;-73
2021/04/27 02:25:12;;;;;;;4.00;3.30;;;9.60;18.20;;;;;;10400123;28;20229;-74
2021/04/27 02:30:19;;;;;;;4.67;3.50;;;9.60;18.60;;;;;;10400915;28;20249;-76
2021/04/27 02:35:22;;;;;;;5.10;3.97;;;9.60;19.00;;;;;;10404409;28;20239;-75
2021/04/27 02:40:27;;;;;;;3.67;3.37;;;9.50;18.40;;;;;;10396753;28;20906;-76
2021/04/27 02:45:33;;;;;;;3.40;3.00;;;9.40;18.70;;;;;;10402779;28;20312;-75
2021/04/27 02:50:35;;;;;;;4.30;3.33;;;9.40;18.70;;;;;;10391927;28;20280;-76
2021/04/27 02:55:38;;;;;;;2.87;2.67;;;9.30;18.50;;;;;;10402626;28;20312;-76
2021/04/27 03:00:41;;;;;;;3.97;3.50;;;9.20;18.50;;;;;;10402521;28;20305;-76
2021/04/27 03:05:43;;;;;;;4.03;3.47;;;9.10;18.70;;;;;;10390607;28;20648;-76
2021/04/27 03:10:46;;;;;;;5.27;3.50;;;9.00;18.70;;;;;;10410649;28;20222;-75
2021/04/27 03:15:49;;;;;;;4.17;3.00;;;9.00;18.70;;;;;;10408147;28;20321;-75
2021/04/27 03:20:52;;;;;;;3.83;3.00;;;8.90;18.60;;;;;;10408327;28;20317;-75
2021/04/27 03:25:54;;;;;;;3.60;3.30;;;8.90;18.60;;;;;;10401166;28;20689;-75
2021/04/27 03:30:57;;;;;;;3.67;3.30;;;8.90;18.60;;;;;;10393018;28;20818;-75
2021/04/27 03:36:00;;;;;;;3.90;3.00;;;8.80;18.60;;;;;;10409587;28;20315;-75
2021/04/27 03:41:02;;;;;;;4.83;3.30;;;8.80;18.60;;;;;;10398406;28;20304;-75
2021/04/27 03:46:05;;;;;;;3.90;3.40;;;8.80;18.60;;;;;;10393751;28;20317;-76
2021/04/27 03:51:08;;;;;;;4.13;3.23;;;8.80;18.80;;;;;;10401984;28;20271;-75
2021/04/27 03:56:10;;;;;;;4.63;3.00;;;8.70;18.60;;;;;;10414608;28;20312;-75
2021/04/27 04:01:13;;;;;;;4.40;2.80;;;8.60;18.60;;;;;;10398344;28;20300;-75
2021/04/27 04:06:15;;;;;;;3.93;3.10;;;8.60;19.00;;;;;;10410808;28;20221;-75
2021/04/27 04:11:18;;;;;;;3.40;3.03;;;8.50;18.90;;;;;;10406416;28;20317;-75
2021/04/27 04:16:21;;;;;;;2.90;2.67;;;8.40;18.80;;;;;;10411508;28;20655;-75
2021/04/27 04:21:24;;;;;;;3.60;3.30;;;8.40;19.10;;;;;;10407127;28;20229;-75
2021/04/27 04:26:26;;;;;;;4.53;3.30;;;8.40;19.10;;;;;;10409418;28;20230;-75
2021/04/27 04:31:29;;;;;;;2.90;2.60;;;8.30;18.90;;;;;;10402231;28;20313;-75
2021/04/27 04:36:32;;;;;;;3.10;2.60;;;8.20;19.10;;;;;;10397109;28;20230;-75
2021/04/27 04:41:34;;;;;;;3.50;3.20;;;8.20;19.20;;;;;;10411448;28;20249;-75
2021/04/27 04:46:37;;;;;;;4.47;3.00;;;8.20;19.30;;;;;;10393200;28;20221;-76
2021/04/27 04:51:39;;;;;;;4.27;2.80;;;8.20;19.50;;;;;;10395686;28;20632;-76
2021/04/27 04:56:41;;;;;;;3.17;2.87;;;8.20;19.40;;;;;;10399570;28;20243;-75
2021/04/27 05:01:44;;;;;;;3.30;3.00;;;8.20;19.50;;;;;;10404060;28;20790;-75
2021/04/27 05:06:48;;;;;;;2.90;2.70;;;8.20;19.70;;;;;;10402347;28;20230;-75
2021/04/27 05:11:50;;;;;;;3.27;2.97;;;8.20;19.80;;;;;;10409732;28;20455;-75
2021/04/27 05:16:53;;;;;;;3.30;2.97;;;8.30;19.70;;;;;;10406102;28;20654;-75
2021/04/27 05:21:56;;;;;;;4.97;2.83;;;8.30;19.90;;;;;;10405262;28;20230;-76
2021/04/27 05:26:58;;;;;;;3.10;2.80;;;8.30;19.90;;;;;;10403956;28;20221;-75
2021/04/27 05:32:01;;;;;;;3.47;2.90;;;8.30;20.00;;;;;;10404635;28;20245;-75
2021/04/27 05:37:05;;;;;;;3.70;2.80;;;8.40;20.20;;;;;;10416184;28;20222;-78
2021/04/27 05:42:07;;;;;;;3.80;2.97;;;8.40;20.20;;;;;;10408939;28;20276;-74
2021/04/27 05:47:10;;;;;;;4.27;2.90;;;8.50;20.20;;;;;;10408350;28;20321;-76
2021/04/27 05:52:13;;;;;;;4.50;3.33;;;8.50;20.30;;;;;;10403967;28;20225;-76
2021/04/27 05:57:16;;;;;;;3.87;3.03;;;8.60;20.30;;;;;;10411350;28;20781;-76
2021/04/27 06:02:19;;;;;;;4.37;2.93;;;8.70;20.50;;;;;;10409980;28;20238;-76
2021/04/27 06:07:22;;;;;;;4.77;3.27;;;8.70;20.50;;;;;;10402613;28;20709;-76
2021/04/27 06:12:24;;;;;;;4.30;3.03;;;8.80;20.50;;;;;;10394315;28;20720;-76
2021/04/27 06:17:27;;;;;;;4.03;3.20;;;8.90;20.60;;;;;;10402041;28;20685;-77
2021/04/27 06:22:29;;;;;;;3.90;3.30;;;9.00;20.80;;;;;;10406063;28;20233;-76
2021/04/27 06:27:31;;;;;;;3.90;3.50;;;9.10;20.70;;;;;;10396973;28;20245;-76
2021/04/27 06:32:35;;;;;;;4.60;3.30;;;9.30;20.80;;;;;;10401712;28;20300;-76
2021/04/27 06:37:37;;;;;;;3.90;3.20;;;9.40;20.90;;;;;;10399309;28;20257;-76
2021/04/27 06:42:40;;;;;;;3.77;3.43;;;9.50;20.90;;;;;;10404679;28;20230;-76
2021/04/27 06:47:43;;;;;;;3.90;3.50;;;9.70;20.90;;;;;;10415569;28;20233;-76
2021/04/27 06:52:46;;;;;;;4.63;3.77;;;9.90;20.90;;;;;;10404036;28;20752;-76
2021/04/27 06:57:48;;;;;;;4.80;4.30;;;10.10;20.20;;;;;;10401053;28;20312;-76
2021/04/27 07:02:51;;;;;;;5.47;4.30;;;10.20;20.10;;;;;;10393199;28;20252;-75
2021/04/27 07:07:53;;;;;;;4.43;4.00;;;10.40;20.30;;;;;;10407075;28;20222;-78
2021/04/27 07:12:57;;;;;;;4.80;4.40;;;10.60;20.20;;;;;;10408848;28;20217;-77
2021/04/27 07:18:00;;;;;;;5.07;3.60;;;10.80;20.20;;;;;;10407744;28;20229;-76
2021/04/27 07:23:03;;;;;;;8.30;4.40;;;11.00;21.20;;;;;;10398293;28;20744;-77
2021/04/27 07:28:06;;;;;;;7.73;4.30;;;11.30;20.70;;;;;;10405777;28;20229;-75
2021/04/27 07:33:09;;;;;;;5.23;4.40;;;11.50;20.30;;;;;;10404295;28;20597;-76
2021/04/27 07:38:12;;;;;;;4.37;3.97;;;11.70;20.30;;;;;;10408458;28;20225;-78
2021/04/27 07:43:14;;;;;;;5.07;4.57;;;12.00;20.30;;;;;;10422300;28;20300;-76
2021/04/27 07:48:17;;;;;;;4.77;4.27;;;12.20;20.30;;;;;;10419149;28;20246;-77
2021/04/27 07:53:19;;;;;;;4.63;4.20;;;12.50;20.20;;;;;;10414446;28;20308;-77
2021/04/27 07:58:22;;;;;;;5.80;4.47;;;12.80;20.40;;;;;;10414451;28;20298;-76
2021/04/27 08:03:25;;;;;;;4.90;4.40;;;13.10;20.60;;;;;;10417463;28;20279;-74
2021/04/27 08:08:27;;;;;;;5.53;4.57;;;13.40;20.50;;;;;;10406114;28;20230;-79
2021/04/27 08:13:31;;;;;;;5.40;4.60;;;13.60;20.10;;;;;;10414503;28;20225;-80
2021/04/27 08:18:36;;;;;;;5.10;4.60;;;13.90;20.20;;;;;;10402454;28;20233;-79
2021/04/27 08:23:40;;;;;;;6.10;4.70;;;14.10;20.10;;;;;;10411935;28;20229;-77
2021/04/27 08:28:43;;;;;;;6.07;4.80;;;14.30;20.00;;;;;;10418125;28;20245;-77
2021/04/27 08:33:46;;;;;;;4.60;4.20;;;14.60;19.80;;;;;;10408162;28;20236;-76
2021/04/27 08:38:49;;;;;;;5.37;4.87;;;14.90;19.70;;;;;;10410141;28;21136;-75
2021/04/27 08:43:52;;;;;;;5.33;4.83;;;15.20;19.60;;;;;;10414352;28;20232;-76
2021/04/27 08:48:56;;;;;;;5.57;4.83;;;15.30;19.40;;;;;;10414098;28;20226;-75
2021/04/27 08:53:58;;;;;;;7.10;4.90;;;15.50;19.50;;;;;;10410127;28;20309;-76
2021/04/27 08:59:01;;;;;;;5.83;4.47;;;15.70;19.60;;;;;;10405071;28;20245;-76
2021/04/27 09:04:04;;;;;;;5.33;4.83;;;15.90;19.40;;;;;;10411212;28;20233;-76
2021/04/27 09:09:07;;;;;;;5.80;4.90;;;16.20;19.10;;;;;;10410347;28;20221;-76
2021/04/27 09:14:17;;;;;;;5.40;4.77;;;16.50;19.00;;;;;;10417177;28;20252;-78
2021/04/27 09:19:31;;;;;;;5.57;5.07;;;16.70;19.00;;;;;;10406914;28;20272;-78
2021/04/27 09:24:36;;;;;;;5.60;5.00;;;16.90;18.40;;;;;;10413425;28;20222;-78
2021/04/27 09:29:41;;;;;;;5.23;4.70;;;17.00;18.10;;;;;;10403876;28;20243;-76
2021/04/27 09:34:44;;;;;;;5.10;4.67;;;17.10;18.20;;;;;;10404601;28;20245;-76
2021/04/27 09:39:50;;;;;;;5.60;4.87;;;17.20;18.10;;;;;;10413083;28;20253;-77
2021/04/27 09:44:54;;;;;;;7.93;5.33;;;17.20;18.00;;;;;;10411716;28;20272;-75
2021/04/27 09:50:00;;;;;;;5.43;5.03;;;17.20;17.60;;;;;;10404005;28;20233;-75
2021/04/27 09:55:13;;;;;;;5.23;4.67;;;17.30;17.60;;;;;;10400451;28;20689;-75
2021/04/27 10:00:27;;;;;;;5.60;5.10;;;17.30;17.00;;;;;;10404627;28;20348;-76
2021/04/27 10:05:32;;;;;;;5.60;5.10;;;17.40;17.10;;;;;;10398381;28;20641;-76
2021/04/27 10:10:36;;;;;;;5.63;5.10;;;17.50;17.60;;;;;;10403055;28;20304;-77
2021/04/27 10:15:39;;;;;;;4.90;4.37;;;17.70;17.50;;;;;;10409195;28;20256;-77
2021/04/27 10:20:43;;;;;;;5.27;4.77;;;17.90;17.60;;;;;;10415487;28;20291;-78
2021/04/27 10:25:45;;;;;;;5.30;4.70;;;18.10;17.30;;;;;;10415608;28;20233;-77
2021/04/27 10:30:48;;;;;;;5.30;4.80;;;18.20;17.50;;;;;;10400848;28;20221;-77
2021/04/27 10:36:03;;;;;;;5.87;4.90;;;18.30;17.30;;;;;;10412941;28;20261;-78
2021/04/27 10:41:13;;;;;;;7.03;5.17;;;18.50;16.60;;;;;;10409638;28;20229;-77
2021/04/27 10:46:52;;;;;;;4.77;4.37;;;18.70;16.90;;;;;;10408867;28;20305;-76
2021/04/27 10:51:57;;;;;;;6.23;4.33;;;18.80;16.20;;;;;;10408188;28;20272;-79
2021/04/27 10:57:15;;;;;;;5.63;4.43;;;19.00;16.10;;;;;;10397441;28;20257;-79
2021/04/27 11:02:21;;;;;;;5.03;4.50;;;19.10;15.60;;;;;;10403393;28;20232;-79
2021/04/27 11:07:42;;;;;;;5.03;4.53;;;19.10;15.80;;;;;;10409029;28;20304;-79
2021/04/27 11:12:54;;;;;;;5.00;4.50;;;19.00;14.50;;;;;;10402290;28;20256;-79
2021/04/27 11:18:01;;;;;;;5.27;4.67;;;18.90;14.10;;;;;;10403193;28;20981;-78
2021/04/27 11:23:05;;;;;;;4.90;4.50;;;18.90;15.50;;;;;;10402247;28;20768;-77
2021/04/27 11:28:16;;;;;;;4.70;4.20;;;18.90;15.80;;;;;;10405084;28;20238;-76
2021/04/27 11:33:18;;;;;;;5.60;4.23;;;18.90;15.30;;;;;;10412428;28;20296;-80
2021/04/27 11:38:22;;;;;;;4.70;4.30;;;19.10;15.60;;;;;;10409077;28;20722;-80
2021/04/27 11:43:24;;;;;;;5.10;4.50;;;19.20;15.50;;;;;;10402672;28;20237;-80
2021/04/27 11:48:26;;;;;;;5.27;4.77;;;19.30;15.90;;;;;;10404059;28;20233;-77
2021/04/27 11:53:31;;;;;;;5.57;5.07;;;19.40;15.40;;;;;;10410878;28;20706;-78
2021/04/27 11:58:35;;;;;;;4.80;4.40;;;19.50;15.30;;;;;;10401211;28;20313;-78
2021/04/27 12:03:40;;;;;;;4.40;3.87;;;19.60;15.50;;;;;;10409748;28;20243;-77
2021/04/27 12:08:45;;;;;;;4.30;3.90;;;19.60;14.90;;;;;;10394811;28;20226;-75
2021/04/27 12:13:50;;;;;;;5.10;4.70;;;19.70;15.00;;;;;;10407294;28;20221;-77
2021/04/27 12:18:59;;;;;;;5.17;4.10;;;19.70;15.00;;;;;;10413599;28;20248;-77
2021/04/27 12:24:15;;;;;;;5.77;3.97;;;19.80;15.00;;;;;;10413121;28;20236;-78
2021/04/27 12:29:25;;;;;;;4.50;4.10;;;19.80;14.50;;;;;;10406996;28;20233;-77
2021/04/27 12:34:27;;;;;;;5.03;4.13;;;19.90;13.90;;;;;;10406971;28;20256;-77
2021/04/27 12:39:36;;;;;;;4.27;3.87;;;19.90;14.20;;;;;;10417232;28;20668;-78
2021/04/27 12:44:40;;;;;;;3.87;3.53;;;19.90;13.60;;;;;;10413345;28;20777;-76
2021/04/27 12:49:43;;;;;;;4.50;4.10;;;19.80;13.70;;;;;;10409295;28;20306;-75
2021/04/27 12:54:56;;;;;;;4.43;4.03;;;19.70;14.00;;;;;;10419581;28;20237;-74
2021/04/27 13:00:01;;;;;;;5.17;4.47;;;19.70;13.50;;;;;;10403831;28;20321;-73
2021/04/27 13:05:08;;;;;;;6.27;4.00;;;19.70;14.20;;;;;;10411955;28;20253;-74
2021/04/27 13:10:33;;;;;;;4.63;4.20;;;19.70;14.60;;;;;;10412514;28;20588;-74
2021/04/27 13:15:35;;;;;;;6.07;4.00;;;19.80;14.50;;;;;;10398183;28;20308;-73
2021/04/27 13:20:40;;;;;;;4.47;3.70;;;20.00;14.40;;;;;;10408329;28;20287;-74
2021/04/27 13:25:46;;;;;;;4.40;4.00;;;20.10;13.80;;;;;;10404018;28;20710;-74
2021/04/27 13:30:50;;;;;;;4.00;3.70;;;20.10;13.80;;;;;;10404529;28;20256;-74
2021/04/27 13:35:55;;;;;;;4.57;3.93;;;20.20;13.90;;;;;;10418848;28;20226;-74
2021/04/27 13:40:59;;;;;;;6.57;3.93;;;20.20;13.60;;;;;;10406986;28;20260;-74
2021/04/27 13:46:04;;;;;;;8.07;3.30;;;20.20;13.30;;;;;;10404258;28;20305;-74
2021/04/27 13:51:09;;;;;;;5.73;3.57;;;20.30;13.40;;;;;;10409379;28;20249;-74
2021/04/27 13:56:14;;;;;;;4.03;3.63;;;20.30;13.40;;;;;;10410007;28;20441;-73
2021/04/27 14:01:16;;;;;;;3.43;3.13;;;20.30;13.20;;;;;;10409283;28;20312;-73
2021/04/27 14:06:18;;;;;;;3.70;3.40;;;20.40;13.50;;;;;;10397244;28;20271;-74
2021/04/27 14:11:21;;;;;;;5.87;3.70;;;20.50;13.30;;;;;;10397768;28;20249;-74
2021/04/27 14:16:24;;;;;;;4.10;3.80;;;20.60;13.10;;;;;;10404924;28;20248;-74
2021/04/27 14:21:26;;;;;;;4.10;3.70;;;20.60;13.30;;;;;;10401396;28;20230;-74
2021/04/27 14:26:29;;;;;;;3.83;3.53;;;20.70;13.30;;;;;;10400257;28;20325;-74
2021/04/27 14:31:33;;;;;;;4.20;3.70;;;20.70;13.00;;;;;;10409546;28;20217;-76
2021/04/27 14:36:35;;;;;;;4.20;3.53;;;20.70;13.00;;;;;;10397914;28;20403;-76
2021/04/27 14:41:39;;;;;;;4.00;3.57;;;20.70;13.20;;;;;;10401087;28;20230;-76
2021/04/27 14:46:41;;;;;;;3.37;3.07;;;20.70;13.10;;;;;;10400225;28;20792;-76
2021/04/27 14:51:44;;;;;;;3.93;3.60;;;20.80;13.10;;;;;;10406407;28;20268;-76
2021/04/27 14:56:47;;;;;;;4.10;3.60;;;20.80;13.10;;;;;;10406495;28;20366;-75
2021/04/27 15:01:49;;;;;;;4.73;3.70;;;20.90;13.00;;;;;;10392344;28;20235;-75
2021/04/27 15:06:52;;;;;;;3.77;3.00;;;20.80;12.70;;;;;;10393226;28;20226;-76
2021/04/27 15:11:55;;;;;;;4.20;3.23;;;20.90;12.80;;;;;;10393541;28;20217;-75
2021/04/27 15:16:57;;;;;;;3.90;3.50;;;20.90;12.60;;;;;;10404817;28;20276;-76
2021/04/27 15:22:00;;;;;;;5.30;3.20;;;20.90;12.80;;;;;;10400962;28;20229;-76
2021/04/27 15:27:03;;;;;;;3.50;3.20;;;20.90;12.90;;;;;;10401389;28;20316;-76
2021/04/27 15:32:06;;;;;;;5.60;3.50;;;21.00;12.70;;;;;;10397923;28;20304;-76
2021/04/27 15:37:08;;;;;;;3.90;3.50;;;20.90;12.80;;;;;;10398132;28;20222;-76
2021/04/27 15:42:11;;;;;;;4.00;3.67;;;20.90;12.80;;;;;;10405315;28;20257;-76
2021/04/27 15:47:15;;;;;;;4.20;3.50;;;21.00;12.70;;;;;;10400403;28;20221;-77
2021/04/27 15:52:18;;;;;;;4.13;3.30;;;20.90;12.70;;;;;;10412918;28;20225;-76
2021/04/27 15:57:21;;;;;;;3.90;3.50;;;21.00;12.60;;;;;;10415526;28;20233;-76
2021/04/27 16:02:23;;;;;;;4.00;3.40;;;21.00;12.60;;;;;;10402097;28;20233;-76
2021/04/27 16:07:26;;;;;;;3.20;2.90;;;20.90;12.70;;;;;;10405636;28;20584;-76
2021/04/27 16:12:29;;;;;;;3.73;3.40;;;20.90;12.70;;;;;;10405997;28;20244;-77
2021/04/27 16:17:32;;;;;;;3.70;3.40;;;20.90;12.40;;;;;;10406823;28;20236;-76
2021/04/27 16:22:35;;;;;;;4.47;3.40;;;20.80;12.70;;;;;;10413986;28;20229;-76
2021/04/27 16:27:38;;;;;;;3.50;3.20;;;20.80;12.70;;;;;;10416656;28;20316;-76
2021/04/27 16:32:42;;;;;;;3.83;3.30;;;20.90;12.50;;;;;;10407794;28;20217;-77
2021/04/27 16:37:44;;;;;;;6.13;3.30;;;20.80;12.20;;;;;;10404817;28;20728;-77
2021/04/27 16:42:48;;;;;;;4.10;3.70;;;20.80;12.30;;;;;;10408216;28;20348;-77
2021/04/27 16:47:51;;;;;;;3.50;2.90;;;20.80;12.40;;;;;;10399103;28;20236;-77
2021/04/27 16:52:53;;;;;;;3.60;3.30;;;20.80;12.70;;;;;;10408353;28;20775;-77
2021/04/27 16:57:57;;;;;;;4.30;3.30;;;20.90;12.50;;;;;;10406845;28;20321;-78
2021/04/27 17:02:59;;;;;;;3.70;3.10;;;21.00;12.40;;;;;;10406539;28;20253;-78
2021/04/27 17:08:05;;;;;;;3.60;3.27;;;21.00;12.60;;;;;;10408387;28;20252;-78
2021/04/27 17:13:10;;;;;;;3.60;3.30;;;21.10;12.40;;;;;;10411523;28;20304;-78
2021/04/27 17:18:12;;;;;;;2.90;2.70;;;21.10;12.30;;;;;;10410584;28;20253;-78
2021/04/27 17:23:14;;;;;;;3.90;3.47;;;21.10;12.50;;;;;;10414312;28;20309;-77
2021/04/27 17:28:18;;;;;;;4.70;3.33;;;21.10;12.30;;;;;;10405564;28;20353;-78
2021/04/27 17:33:20;;;;;;;3.60;3.30;;;21.00;12.20;;;;;;10407114;28;20310;-77
2021/04/27 17:38:23;;;;;;;3.13;2.93;;;21.00;12.50;;;;;;10409647;28;20261;-77
2021/04/27 17:43:26;;;;;;;4.67;3.30;;;20.90;12.50;;;;;;10399298;28;20230;-77
2021/04/27 17:48:28;;;;;;;4.33;3.20;;;20.80;12.30;;;;;;10409476;28;20246;-78
2021/04/27 17:53:30;;;;;;;4.33;3.30;;;20.70;12.50;;;;;;10404936;28;20535;-77
2021/04/27 17:58:33;;;;;;;3.73;3.40;;;20.60;12.50;;;;;;10401223;28;20668;-77
2021/04/27 18:03:36;;;;;;;3.47;2.90;;;20.60;12.70;;;;;;10408298;28;20721;-77
2021/04/27 18:08:38;;;;;;;3.07;2.77;;;20.40;12.80;;;;;;10409803;28;20222;-77
2021/04/27 18:13:41;;;;;;;3.90;3.50;;;20.40;13.10;;;;;;10401377;28;20325;-77
2021/04/27 18:18:44;;;;;;;7.30;3.70;;;20.30;13.20;;;;;;10394996;28;20724;-76
2021/04/27 18:23:47;;;;;;;5.70;4.20;;;20.20;13.10;;;;;;10395462;28;20222;-77
2021/04/27 18:28:50;;;;;;;6.10;3.90;;;20.00;12.90;;;;;;10400559;28;20213;-76
2021/04/27 18:33:52;;;;;;;5.90;4.30;;;19.90;13.00;;;;;;10394488;28;20325;-76
2021/04/27 18:38:54;;;;;;;4.00;3.67;;;19.70;13.10;;;;;;10395438;28;20593;-76
2021/04/27 18:43:57;;;;;;;5.07;3.80;;;19.60;13.10;;;;;;10401453;28;20320;-77
2021/04/27 18:49:00;;;;;;;3.50;3.20;;;19.40;12.80;;;;;;10402343;28;20598;-76
2021/04/27 18:54:02;;;;;;;3.70;3.40;;;19.30;13.10;;;;;;10397474;28;20758;-75
2021/04/27 18:59:06;;;;;;;3.53;3.20;;;19.20;13.00;;;;;;10398652;28;20254;-78
2021/04/27 19:04:08;;;;;;;4.60;3.30;;;19.10;13.20;;;;;;10418357;28;20256;-78
2021/04/27 19:09:11;;;;;;;4.20;3.70;;;19.00;13.10;;;;;;10407751;28;20218;-78
2021/04/27 19:14:14;;;;;;;4.07;3.67;;;18.90;13.30;;;;;;10413665;28;20225;-78
2021/04/27 19:19:16;;;;;;;5.97;4.10;;;18.70;13.20;;;;;;10403305;28;20252;-77
2021/04/27 19:24:18;;;;;;;3.70;3.40;;;18.60;13.10;;;;;;10403195;28;20235;-78
2021/04/27 19:29:22;;;;;;;4.67;3.80;;;18.50;13.20;;;;;;10416440;28;20259;-78
2021/04/27 19:34:24;;;;;;;4.17;3.30;;;18.30;13.30;;;;;;10410619;28;20221;-78
2021/04/27 19:39:31;;;;;;;4.20;3.60;;;18.20;13.40;;;;;;10417201;28;20269;-77
2021/04/27 19:44:34;;;;;;;8.13;3.67;;;18.10;13.60;;;;;;10406704;28;20233;-77
2021/04/27 19:49:36;;;;;;;4.03;3.27;;;17.90;13.50;;;;;;10417704;28;20230;-77
2021/04/27 19:54:39;;;;;;;4.90;3.63;;;17.80;13.70;;;;;;10404354;28;20313;-78
2021/04/27 19:59:42;;;;;;;4.07;3.57;;;17.60;13.50;;;;;;10411263;28;20241;-77
2021/04/27 20:04:44;;;;;;;3.67;3.30;;;17.50;13.50;;;;;;10420267;28;20301;-77
2021/04/27 20:09:46;;;;;;;4.80;3.40;;;17.30;13.40;;;;;;10406140;28;20328;-77
2021/04/27 20:14:49;;;;;;;5.33;3.80;;;17.20;13.30;;;;;;10415576;28;20761;-77
2021/04/27 20:19:52;;;;;;;3.40;3.10;;;17.10;13.20;;;;;;10407968;28;20453;-77
2021/04/27 20:24:54;;;;;;;5.07;3.40;;;17.00;13.20;;;;;;10410865;28;20313;-77
2021/04/27 20:29:57;;;;;;;4.10;3.37;;;16.90;13.40;;;;;;10404991;28;20260;-77
2021/04/27 20:35:03;;;;;;;4.87;3.63;;;16.80;13.70;;;;;;10410593;28;20259;-77
2021/04/27 20:40:08;;;;;;;6.80;4.17;;;16.70;13.70;;;;;;10416994;28;20245;-77
2021/04/27 20:45:13;;;;;;;4.47;4.03;;;16.60;13.90;;;;;;10412070;28;20770;-77
2021/04/27 20:50:17;;;;;;;4.27;3.67;;;16.50;14.00;;;;;;10411613;28;20225;-77
2021/04/27 20:55:20;;;;;;;4.20;2.73;;;16.40;14.30;;;;;;10412001;28;20320;-77
2021/04/27 21:00:26;;;;;;;6.37;3.10;;;16.30;14.20;;;;;;10410831;28;20231;-78
2021/04/27 21:05:28;;;;;;;4.20;3.27;;;16.20;14.40;;;;;;10422482;28;20249;-77
2021/04/27 21:10:31;;;;;;;4.73;3.40;;;16.20;14.50;;;;;;10407595;28;20321;-77
2021/04/27 21:15:34;;;;;;;4.07;3.67;;;16.10;14.40;;;;;;10419315;28;20687;-77
2021/04/27 21:20:37;;;;;;;4.27;3.70;;;16.10;14.90;;;;;;10411405;28;20230;-77
2021/04/27 21:25:39;;;;;;;5.00;3.70;;;15.90;14.70;;;;;;10415966;28;20838;-77
2021/04/27 21:30:42;;;;;;;4.20;3.30;;;15.80;14.90;;;;;;10410550;28;20352;-76
2021/04/27 21:35:44;;;;;;;6.07;3.70;;;15.70;15.10;;;;;;10413346;28;20312;-77
2021/04/27 21:40:47;;;;;;;3.73;3.10;;;15.50;15.00;;;;;;10406078;28;20305;-76
2021/04/27 21:45:50;;;;;;;3.40;3.10;;;15.40;15.10;;;;;;10414082;28;20322;-77
2021/04/27 21:50:52;;;;;;;4.03;3.60;;;15.30;15.30;;;;;;10416363;28;20733;-77
2021/04/27 21:55:54;;;;;;;5.17;4.13;;;15.20;15.40;;;;;;10414018;28;20313;-77
2021/04/27 22:00:57;;;;;;;4.27;3.37;;;15.10;15.50;;;;;;10416513;28;20348;-77
2021/04/27 22:05:59;;;;;;;4.97;4.20;;;15.00;15.50;;;;;;10399308;28;20765;-77
2021/04/27 22:11:02;;;;;;;5.10;3.97;;;14.90;15.50;;;;;;10416695;28;20238;-72
2021/04/27 22:16:06;;;;;;;3.83;3.40;;;14.70;15.60;;;;;;10418982;28;20315;-73
2021/04/27 22:21:09;;;;;;;5.50;3.70;;;14.60;15.90;;;;;;10413020;28;20225;-72
2021/04/27 22:26:11;;;;;;;3.77;3.30;;;14.40;15.80;;;;;;10413026;28;20658;-73
2021/04/27 22:31:15;;;;;;;5.87;3.87;;;14.30;15.90;;;;;;10409462;28;20329;-72
2021/04/27 22:36:17;;;;;;;3.53;3.23;;;14.20;16.30;;;;;;10426317;28;20241;-72
2021/04/27 22:41:20;;;;;;;6.33;3.60;;;14.10;16.10;;;;;;10414577;28;20222;-72
2021/04/27 22:46:23;;;;;;;4.63;3.70;;;13.90;16.20;;;;;;10411587;28;20228;-72
2021/04/27 22:51:25;;;;;;;3.97;3.00;;;13.90;16.40;;;;;;10413257;28;20253;-72
2021/04/27 22:56:27;;;;;;;3.53;3.23;;;13.80;16.80;;;;;;10410404;28;20240;-72
2021/04/27 23:01:30;;;;;;;3.70;3.30;;;13.70;16.40;;;;;;10386298;28;20305;-72
2021/04/27 23:06:32;;;;;;;5.33;4.00;;;13.60;16.50;;;;;;10402279;28;20316;-72
2021/04/27 23:11:34;;;;;;;5.17;3.90;;;13.60;16.60;;;;;;10403685;28;20416;-72
2021/04/27 23:16:37;;;;;;;4.27;3.57;;;13.50;16.60;;;;;;10414877;28;20308;-72
2021/04/27 23:21:40;;;;;;;4.10;3.70;;;13.40;16.70;;;;;;10408389;28;20312;-73
2021/04/27 23:26:42;;;;;;;5.83;4.10;;;13.30;16.70;;;;;;10402945;28;20702;-72
2021/04/27 23:31:45;;;;;;;3.93;3.50;;;13.20;16.70;;;;;;10409992;28;20220;-72
2021/04/27 23:36:48;;;;;;;4.93;3.80;;;13.20;16.90;;;;;;10409359;28;20229;-72
2021/04/27 23:41:50;;;;;;;4.20;3.80;;;13.10;17.00;;;;;;10422735;28;20307;-72
2021/04/27 23:46:53;;;;;;;5.37;4.03;;;13.00;17.00;;;;;;10419484;28;20529;-72
2021/04/27 23:51:56;;;;;;;4.53;3.40;;;12.90;17.10;;;;;;10404628;28;20222;-72
2021/04/27 23:56:58;;;;;;;4.37;3.53;;;12.80;17.00;;;;;;10414415;28;20304;-72
